createdAt,value
2019-04-16T00:00:16.976Z,5.92
2019-04-16T00:02:18.789Z,5.95
2019-04-16T00:04:17.101Z,5.89
2019-04-16T00:06:16.930Z,5.90
2019-04-16T00:08:27.231Z,5.78
2019-04-16T00:10:16.831Z,5.69
2019-04-16T00:12:17.047Z,5.66
2019-04-16T00:14:17.069Z,5.59
2019-04-16T00:16:16.870Z,5.43
2019-04-16T00:18:18.695Z,5.46
2019-04-16T00:20:17.292Z,5.53
2019-04-16T00:22:16.797Z,5.41
2019-04-16T00:24:18.563Z,5.37
2019-04-16T00:26:17.064Z,5.47
2019-04-16T00:28:16.976Z,5.57
2019-04-16T00:30:16.970Z,5.46
2019-04-16T00:32:17.216Z,5.56
2019-04-16T00:34:17.002Z,5.61
2019-04-16T00:36:18.125Z,5.49
2019-04-16T00:38:17.046Z,5.48
2019-04-16T00:40:17.314Z,5.52
2019-04-16T00:42:17.123Z,5.53
2019-04-16T00:44:16.931Z,5.60
2019-04-16T00:46:17.151Z,5.59
2019-04-16T00:48:16.947Z,5.47
2019-04-16T00:50:16.965Z,5.51
2019-04-16T00:52:16.970Z,5.40
2019-04-16T00:54:16.787Z,5.31
2019-04-16T00:56:17.201Z,5.19
2019-04-16T00:58:19.550Z,5.08
2019-04-16T01:00:16.914Z,5.06
2019-04-16T01:02:17.136Z,4.88
2019-04-16T01:04:17.154Z,4.65
2019-04-16T01:06:18.041Z,4.58
2019-04-16T01:08:17.116Z,4.63
2019-04-16T01:10:16.752Z,4.50
2019-04-16T01:12:16.991Z,4.36
2019-04-16T01:14:17.004Z,4.32
2019-04-16T01:16:16.778Z,4.42
2019-04-16T01:18:16.948Z,4.33
2019-04-16T01:20:16.838Z,4.30
2019-04-16T01:22:17.005Z,4.31
2019-04-16T01:24:17.549Z,4.39
2019-04-16T01:26:16.872Z,4.24
2019-04-16T01:28:17.024Z,4.31
2019-04-16T01:30:17.092Z,4.18
2019-04-16T01:32:16.915Z,4.11
2019-04-16T01:34:18.083Z,4.07
2019-04-16T01:36:17.137Z,4.06
2019-04-16T01:38:17.109Z,3.92
2019-04-16T01:40:18.604Z,3.87
2019-04-16T01:42:17.574Z,3.78
2019-04-16T01:44:17.183Z,3.69
2019-04-16T01:46:16.921Z,3.61
2019-04-16T01:48:17.034Z,3.51
2019-04-16T01:50:17.209Z,3.44
2019-04-16T01:52:19.048Z,3.45
2019-04-16T01:54:17.231Z,3.43
2019-04-16T01:56:16.963Z,3.56
2019-04-16T01:58:17.102Z,3.47
2019-04-16T02:00:17.371Z,3.42
2019-04-16T02:02:16.973Z,3.32
2019-04-16T02:04:19.613Z,3.49
2019-04-16T02:06:17.202Z,3.56
2019-04-16T02:08:17.214Z,3.63
2019-04-16T02:10:17.229Z,3.46
2019-04-16T02:12:16.803Z,3.45
2019-04-16T02:14:17.973Z,3.39
2019-04-16T02:16:16.996Z,3.43
2019-04-16T02:18:16.994Z,3.36
2019-04-16T02:20:17.287Z,3.40
2019-04-16T02:22:17.096Z,3.32
2019-04-16T02:24:18.757Z,3.31
2019-04-16T02:26:17.060Z,3.14
2019-04-16T02:28:17.127Z,3.28
2019-04-16T02:30:16.883Z,3.55
2019-04-16T02:32:17.262Z,3.53
2019-04-16T02:34:17.160Z,3.47
2019-04-16T02:36:16.929Z,3.51
2019-04-16T02:38:16.987Z,3.45
2019-04-16T02:40:18.606Z,3.42
2019-04-16T02:42:16.965Z,3.33
2019-04-16T02:44:17.231Z,3.39
2019-04-16T02:46:16.984Z,3.28
2019-04-16T02:48:17.431Z,3.26
2019-04-16T02:50:17.055Z,3.19
2019-04-16T02:52:17.495Z,3.12
2019-04-16T02:54:17.167Z,3.21
2019-04-16T02:56:19.017Z,3.26
2019-04-16T02:58:16.909Z,3.25
2019-04-16T03:00:18.427Z,3.31
2019-04-16T03:02:17.234Z,3.28
2019-04-16T03:04:17.232Z,3.21
2019-04-16T03:06:17.258Z,3.29
2019-04-16T03:08:17.259Z,3.38
2019-04-16T03:10:17.273Z,3.22
2019-04-16T03:12:20.755Z,3.23
2019-04-16T03:14:17.293Z,3.15
2019-04-16T03:16:17.104Z,3.17
2019-04-16T03:18:17.424Z,3.10
2019-04-16T03:20:17.228Z,3.12
2019-04-16T03:22:17.031Z,3.07
2019-04-16T03:24:17.455Z,2.94
2019-04-16T03:26:18.161Z,2.85
2019-04-16T03:28:16.967Z,2.67
2019-04-16T03:30:17.158Z,2.77
2019-04-16T03:32:17.296Z,2.81
2019-04-16T03:34:19.070Z,2.80
2019-04-16T03:36:17.154Z,2.83
2019-04-16T03:38:17.232Z,2.82
2019-04-16T03:40:18.621Z,2.81
2019-04-16T03:42:17.254Z,2.80
2019-04-16T03:44:17.265Z,2.75
2019-04-16T03:46:17.284Z,2.68
2019-04-16T03:48:17.590Z,2.63
2019-04-16T03:50:17.320Z,2.66
2019-04-16T03:52:17.309Z,2.69
2019-04-16T03:54:18.837Z,2.76
2019-04-16T03:56:17.111Z,2.69
2019-04-16T03:58:17.142Z,2.70
2019-04-16T04:00:16.940Z,2.66
2019-04-16T04:02:21.952Z,2.68
2019-04-16T04:04:16.972Z,2.57
2019-04-16T04:06:17.397Z,2.53
2019-04-16T04:08:17.972Z,2.48
2019-04-16T04:10:29.746Z,2.44
2019-04-16T04:12:17.285Z,2.50
2019-04-16T04:14:22.153Z,2.41
2019-04-16T04:16:17.251Z,2.36
2019-04-16T04:18:17.294Z,2.36
2019-04-16T04:20:18.132Z,2.18
2019-04-16T04:22:17.204Z,2.14
2019-04-16T04:24:17.093Z,2.27
2019-04-16T04:26:17.201Z,2.09
2019-04-16T04:28:19.959Z,2.08
2019-04-16T04:30:17.229Z,2.09
2019-04-16T04:32:17.314Z,2.04
2019-04-16T04:34:17.783Z,1.98
2019-04-16T04:36:19.562Z,1.94
2019-04-16T04:38:17.172Z,1.95
2019-04-16T04:40:17.519Z,1.95
2019-04-16T04:42:19.173Z,1.94
2019-04-16T04:44:17.211Z,2.05
2019-04-16T04:46:17.157Z,1.89
2019-04-16T04:48:17.023Z,1.85
2019-04-16T04:50:17.448Z,2.02
2019-04-16T04:52:17.130Z,2.14
2019-04-16T04:54:21.597Z,2.35
2019-04-16T04:56:19.324Z,2.44
2019-04-16T04:58:17.398Z,2.64
2019-04-16T05:00:16.940Z,2.81
2019-04-16T05:02:17.425Z,2.92
2019-04-16T05:04:20.392Z,3.09
2019-04-16T05:06:17.230Z,3.27
2019-04-16T05:08:17.353Z,3.40
2019-04-16T05:10:17.511Z,3.60
2019-04-16T05:12:17.860Z,3.80
2019-04-16T05:14:17.010Z,3.99
2019-04-16T05:16:17.194Z,4.12
2019-04-16T05:18:17.281Z,4.45
2019-04-16T05:20:17.113Z,4.62
2019-04-16T05:22:20.630Z,5.02
2019-04-16T05:24:17.089Z,5.18
2019-04-16T05:26:17.344Z,5.35
2019-04-16T05:28:17.261Z,5.51
2019-04-16T05:30:20.226Z,5.65
2019-04-16T05:32:17.571Z,5.71
2019-04-16T05:34:18.329Z,5.93
2019-04-16T05:36:20.662Z,6.32
2019-04-16T05:38:17.320Z,6.48
2019-04-16T05:40:17.441Z,6.66
2019-04-16T05:42:17.312Z,6.52
2019-04-16T05:44:17.352Z,6.36
2019-04-16T05:46:17.151Z,6.25
2019-04-16T05:48:18.535Z,6.11
2019-04-16T05:50:17.387Z,5.97
2019-04-16T05:52:17.412Z,6.00
2019-04-16T05:54:17.188Z,5.89
2019-04-16T05:56:17.220Z,5.88
2019-04-16T05:58:17.432Z,6.15
2019-04-16T06:00:17.443Z,6.60
2019-04-16T06:02:18.822Z,7.28
2019-04-16T06:04:17.470Z,7.92
2019-04-16T06:06:17.543Z,8.42
2019-04-16T06:08:17.090Z,8.84
2019-04-16T06:10:18.991Z,9.31
2019-04-16T06:12:17.414Z,9.69
2019-04-16T06:14:18.960Z,9.99
2019-04-16T06:16:17.341Z,10.27
2019-04-16T06:18:18.214Z,10.72
2019-04-16T06:20:20.509Z,10.84
2019-04-16T06:22:17.266Z,11.09
2019-04-16T06:24:17.291Z,11.33
2019-04-16T06:26:17.622Z,11.35
2019-04-16T06:28:17.458Z,11.22
2019-04-16T06:30:17.315Z,11.45
2019-04-16T06:32:17.327Z,11.66
2019-04-16T06:34:17.344Z,11.92
2019-04-16T06:36:17.447Z,12.07
2019-04-16T06:38:17.532Z,12.41
2019-04-16T06:40:17.422Z,12.29
2019-04-16T06:42:21.011Z,12.12
2019-04-16T06:44:17.394Z,12.12
2019-04-16T06:46:17.204Z,12.07
2019-04-16T06:48:17.523Z,12.24
2019-04-16T06:50:30.279Z,12.37
2019-04-16T06:52:18.070Z,12.44
2019-04-16T06:54:17.455Z,12.50
2019-04-16T06:56:19.923Z,12.60
2019-04-16T06:58:18.271Z,12.48
2019-04-16T07:00:17.409Z,12.51
2019-04-16T07:02:17.510Z,12.51
2019-04-16T07:04:17.290Z,12.64
2019-04-16T07:06:17.315Z,12.57
2019-04-16T07:08:18.510Z,12.85
2019-04-16T07:10:17.753Z,13.00
2019-04-16T07:12:17.503Z,13.24
2019-04-16T07:14:17.609Z,13.30
2019-04-16T07:16:17.421Z,13.25
2019-04-16T07:18:20.501Z,13.10
2019-04-16T07:20:17.462Z,13.01
2019-04-16T07:22:21.149Z,13.07
2019-04-16T07:24:17.582Z,12.91
2019-04-16T07:26:17.458Z,12.94
2019-04-16T07:28:17.250Z,13.03
2019-04-16T07:30:20.860Z,13.09
2019-04-16T07:32:17.230Z,13.14
2019-04-16T07:34:17.213Z,12.92
2019-04-16T07:36:17.491Z,12.98
2019-04-16T07:38:17.333Z,13.40
2019-04-16T07:40:17.416Z,13.58
2019-04-16T07:42:21.455Z,13.83
2019-04-16T07:44:17.443Z,13.90
2019-04-16T07:46:17.315Z,13.95
2019-04-16T07:48:17.462Z,13.68
2019-04-16T07:50:17.403Z,13.42
2019-04-16T07:52:17.370Z,13.36
2019-04-16T07:54:18.861Z,13.21
2019-04-16T07:56:17.503Z,13.54
2019-04-16T07:58:17.517Z,13.51
2019-04-16T08:00:17.445Z,13.63
2019-04-16T08:02:21.286Z,13.34
2019-04-16T08:04:28.333Z,13.19
2019-04-16T08:06:17.575Z,13.37
2019-04-16T08:08:17.371Z,13.33
2019-04-16T08:10:17.360Z,13.53
2019-04-16T08:12:29.936Z,13.42
2019-04-16T08:14:17.242Z,13.45
2019-04-16T08:16:17.313Z,13.60
2019-04-16T08:18:17.533Z,13.87
2019-04-16T08:20:19.809Z,13.98
2019-04-16T08:22:17.472Z,14.15
2019-04-16T08:24:17.542Z,14.23
2019-04-16T08:26:17.513Z,14.02
2019-04-16T08:28:17.706Z,14.15
2019-04-16T08:30:17.812Z,14.30
2019-04-16T08:32:17.406Z,14.14
2019-04-16T08:34:17.624Z,13.87
2019-04-16T08:36:17.706Z,13.82
2019-04-16T08:38:17.338Z,13.94
2019-04-16T08:40:17.751Z,14.17
2019-04-16T08:42:17.570Z,14.20
2019-04-16T08:44:17.784Z,13.68
2019-04-16T08:46:17.923Z,13.49
2019-04-16T08:48:18.848Z,13.48
2019-04-16T08:50:17.536Z,13.70
2019-04-16T08:52:17.528Z,14.04
2019-04-16T08:54:18.797Z,13.99
2019-04-16T08:56:17.764Z,13.66
2019-04-16T08:58:17.566Z,13.70
2019-04-16T09:00:17.580Z,13.56
2019-04-16T09:02:17.525Z,13.66
2019-04-16T09:04:17.325Z,13.52
2019-04-16T09:06:17.703Z,13.36
2019-04-16T09:08:21.811Z,13.37
2019-04-16T09:10:20.254Z,13.45
2019-04-16T09:12:17.686Z,13.59
2019-04-16T09:14:20.808Z,14.04
2019-04-16T09:16:17.767Z,14.10
2019-04-16T09:18:17.578Z,14.63
2019-04-16T09:20:17.723Z,15.02
2019-04-16T09:22:17.806Z,14.96
2019-04-16T09:24:17.716Z,14.70
2019-04-16T09:26:22.576Z,14.57
2019-04-16T09:28:25.717Z,14.89
2019-04-16T09:30:17.956Z,15.40
2019-04-16T09:32:17.562Z,15.54
2019-04-16T09:34:18.710Z,15.65
2019-04-16T09:36:17.334Z,15.70
2019-04-16T09:38:17.522Z,15.88
2019-04-16T09:40:18.497Z,15.95
2019-04-16T09:42:17.373Z,16.26
2019-04-16T09:44:17.421Z,16.57
2019-04-16T09:46:25.559Z,16.48
2019-04-16T09:48:17.448Z,16.45
2019-04-16T09:50:17.659Z,16.33
2019-04-16T09:52:19.731Z,16.18
2019-04-16T09:54:17.681Z,16.08
2019-04-16T09:56:19.686Z,16.06
2019-04-16T09:58:17.606Z,15.83
2019-04-16T10:00:20.422Z,15.74
2019-04-16T10:02:17.628Z,16.01
2019-04-16T10:04:17.694Z,16.28
2019-04-16T10:06:17.592Z,16.39
2019-04-16T10:08:17.405Z,16.37
2019-04-16T10:10:17.586Z,16.08
2019-04-16T10:12:17.606Z,16.21
2019-04-16T10:14:17.706Z,16.17
2019-04-16T10:16:17.608Z,16.14
2019-04-16T10:18:18.965Z,15.98
2019-04-16T10:20:17.749Z,16.10
2019-04-16T10:22:18.093Z,16.40
2019-04-16T10:24:17.545Z,17.06
2019-04-16T10:26:17.500Z,16.82
2019-04-16T10:28:17.391Z,16.86
2019-04-16T10:30:19.516Z,16.89
2019-04-16T10:32:18.389Z,16.73
2019-04-16T10:34:17.718Z,16.95
2019-04-16T10:36:17.672Z,17.29
2019-04-16T10:38:17.566Z,17.05
2019-04-16T10:40:17.862Z,17.21
2019-04-16T10:42:17.770Z,17.16
2019-04-16T10:44:17.697Z,17.37
2019-04-16T10:46:17.823Z,17.70
2019-04-16T10:48:17.796Z,17.15
2019-04-16T10:50:17.821Z,16.96
2019-04-16T10:52:17.824Z,17.03
2019-04-16T10:54:17.835Z,17.16
2019-04-16T10:56:20.722Z,17.41
2019-04-16T10:58:17.859Z,17.73
2019-04-16T11:00:17.654Z,17.85
2019-04-16T11:02:18.798Z,17.81
2019-04-16T11:04:19.142Z,17.80
2019-04-16T11:06:17.902Z,17.62
2019-04-16T11:08:17.662Z,17.77
2019-04-16T11:10:17.822Z,18.06
2019-04-16T11:12:19.770Z,18.04
2019-04-16T11:14:17.849Z,17.99
2019-04-16T11:16:17.690Z,17.88
2019-04-16T11:18:17.712Z,17.80
2019-04-16T11:20:20.321Z,17.76
2019-04-16T11:22:17.926Z,17.81
2019-04-16T11:24:20.484Z,18.02
2019-04-16T11:26:17.683Z,18.13
2019-04-16T11:28:17.682Z,17.97
2019-04-16T11:30:17.747Z,17.83
2019-04-16T11:32:17.871Z,17.95
2019-04-16T11:34:17.869Z,18.00
2019-04-16T11:36:20.293Z,18.08
2019-04-16T11:38:17.902Z,18.32
2019-04-16T11:40:17.770Z,18.46
2019-04-16T11:42:17.830Z,18.65
2019-04-16T11:44:17.926Z,18.73
2019-04-16T11:46:17.932Z,18.79
2019-04-16T11:48:17.884Z,18.65
2019-04-16T11:50:18.135Z,18.72
2019-04-16T11:52:18.135Z,18.67
2019-04-16T11:54:17.895Z,18.77
2019-04-16T11:56:17.795Z,19.11
2019-04-16T11:58:18.013Z,19.11
2019-04-16T12:00:17.738Z,18.93
2019-04-16T12:02:20.413Z,18.75
2019-04-16T12:04:17.622Z,18.85
2019-04-16T12:06:27.833Z,18.95
2019-04-16T12:08:17.857Z,18.93
2019-04-16T12:10:17.634Z,18.90
2019-04-16T12:12:18.130Z,18.95
2019-04-16T12:14:29.160Z,18.87
2019-04-16T12:16:21.226Z,19.09
2019-04-16T12:18:17.875Z,19.32
2019-04-16T12:20:17.972Z,19.51
2019-04-16T12:22:17.749Z,19.35
2019-04-16T12:24:18.632Z,19.32
2019-04-16T12:26:17.970Z,19.13
2019-04-16T12:28:18.030Z,19.26
2019-04-16T12:30:17.788Z,19.45
2019-04-16T12:32:17.972Z,19.59
2019-04-16T12:34:17.773Z,19.66
2019-04-16T12:36:18.056Z,19.41
2019-04-16T12:38:18.543Z,19.31
2019-04-16T12:40:20.055Z,19.47
2019-04-16T12:42:18.035Z,19.64
2019-04-16T12:44:18.175Z,19.59
2019-04-16T12:46:18.010Z,19.51
2019-04-16T12:48:18.024Z,19.42
2019-04-16T12:50:18.440Z,19.40
2019-04-16T12:52:17.828Z,19.45
2019-04-16T12:54:18.037Z,19.43
2019-04-16T12:56:18.042Z,19.40
2019-04-16T12:58:19.934Z,19.28
2019-04-16T13:00:18.072Z,19.24
2019-04-16T13:02:17.741Z,19.52
2019-04-16T13:04:17.704Z,19.82
2019-04-16T13:06:18.000Z,19.95
2019-04-16T13:08:18.005Z,19.99
2019-04-16T13:10:18.028Z,20.03
2019-04-16T13:12:18.038Z,20.17
2019-04-16T13:14:17.839Z,20.21
2019-04-16T13:16:17.752Z,20.50
2019-04-16T13:18:17.739Z,20.33
2019-04-16T13:20:17.979Z,20.30
2019-04-16T13:22:17.705Z,20.27
2019-04-16T13:24:18.104Z,20.15
2019-04-16T13:26:18.013Z,20.05
2019-04-16T13:28:20.417Z,20.04
2019-04-16T13:30:17.933Z,19.77
2019-04-16T13:32:17.951Z,19.57
2019-04-16T13:34:18.679Z,19.71
2019-04-16T13:36:18.097Z,19.60
2019-04-16T13:38:17.918Z,19.74
2019-04-16T13:40:18.000Z,19.82
2019-04-16T13:42:17.902Z,20.10
2019-04-16T13:44:17.985Z,20.12
2019-04-16T13:46:17.864Z,19.87
2019-04-16T13:48:18.152Z,19.64
2019-04-16T13:50:17.850Z,19.62
2019-04-16T13:52:20.436Z,19.79
2019-04-16T13:54:18.068Z,19.94
2019-04-16T13:56:18.659Z,20.06
2019-04-16T13:58:18.100Z,20.14
2019-04-16T14:00:17.914Z,20.02
2019-04-16T14:02:18.768Z,20.15
2019-04-16T14:04:18.136Z,20.30
2019-04-16T14:06:18.149Z,20.45
2019-04-16T14:08:17.901Z,20.33
2019-04-16T14:10:18.380Z,20.25
2019-04-16T14:12:24.513Z,20.08
2019-04-16T14:14:18.767Z,19.62
2019-04-16T14:16:18.011Z,19.42
2019-04-16T14:18:21.672Z,19.17
2019-04-16T14:20:18.436Z,18.95
2019-04-16T14:22:21.655Z,19.10
2019-04-16T14:24:18.156Z,19.17
2019-04-16T14:26:17.865Z,19.11
2019-04-16T14:28:18.208Z,19.17
2019-04-16T14:30:18.192Z,19.15
2019-04-16T14:32:18.103Z,19.02
2019-04-16T14:34:18.108Z,18.89
2019-04-16T14:36:18.233Z,18.67
2019-04-16T14:38:18.250Z,18.65
2019-04-16T14:40:18.431Z,18.52
2019-04-16T14:42:19.097Z,18.56
2019-04-16T14:44:17.972Z,18.70
2019-04-16T14:46:17.945Z,18.69
2019-04-16T14:48:18.232Z,18.61
2019-04-16T14:50:19.969Z,18.71
2019-04-16T14:52:18.226Z,18.74
2019-04-16T14:54:18.028Z,18.77
2019-04-16T14:56:17.982Z,18.66
2019-04-16T14:58:18.051Z,18.50
2019-04-16T15:00:20.878Z,18.28
2019-04-16T15:02:18.241Z,17.99
2019-04-16T15:04:18.087Z,17.91
2019-04-16T15:06:19.673Z,17.86
2019-04-16T15:08:18.109Z,17.88
2019-04-16T15:10:18.334Z,17.81
2019-04-16T15:12:18.345Z,17.76
2019-04-16T15:14:18.356Z,17.70
2019-04-16T15:16:22.261Z,17.80
2019-04-16T15:18:18.377Z,17.79
2019-04-16T15:20:18.595Z,17.82
2019-04-16T15:22:17.985Z,17.70
2019-04-16T15:24:18.184Z,17.71
2019-04-16T15:26:18.627Z,17.60
2019-04-16T15:28:18.020Z,17.71
2019-04-16T15:30:18.174Z,17.69
2019-04-16T15:32:18.595Z,17.83
2019-04-16T15:34:18.469Z,18.12
2019-04-16T15:36:19.507Z,18.14
2019-04-16T15:38:18.107Z,18.18
2019-04-16T15:40:18.509Z,18.27
2019-04-16T15:42:18.309Z,18.34
2019-04-16T15:44:22.546Z,18.41
2019-04-16T15:46:26.037Z,18.54
2019-04-16T15:48:18.977Z,18.61
2019-04-16T15:50:18.126Z,18.58
2019-04-16T15:52:18.266Z,18.71
2019-04-16T15:54:18.287Z,18.88
2019-04-16T15:56:18.705Z,18.76
2019-04-16T15:58:18.490Z,18.75
2019-04-16T16:00:18.730Z,18.64
2019-04-16T16:02:18.740Z,18.50
2019-04-16T16:04:18.513Z,18.42
2019-04-16T16:06:20.361Z,18.32
2019-04-16T16:08:18.575Z,18.39
2019-04-16T16:10:18.480Z,18.16
2019-04-16T16:12:22.030Z,18.13
2019-04-16T16:14:18.711Z,18.08
2019-04-16T16:16:18.955Z,18.00
2019-04-16T16:18:18.728Z,18.04
2019-04-16T16:20:18.638Z,18.04
2019-04-16T16:22:18.446Z,17.88
2019-04-16T16:24:18.867Z,17.81
2019-04-16T16:26:18.438Z,17.70
2019-04-16T16:28:18.792Z,17.70
2019-04-16T16:30:19.018Z,17.71
2019-04-16T16:32:18.827Z,17.60
2019-04-16T16:34:18.619Z,17.60
2019-04-16T16:36:18.349Z,17.59
2019-04-16T16:38:20.822Z,17.55
2019-04-16T16:40:18.457Z,17.52
2019-04-16T16:42:18.360Z,17.42
2019-04-16T16:44:18.788Z,17.38
2019-04-16T16:46:18.797Z,17.30
2019-04-16T16:48:21.817Z,17.18
2019-04-16T16:50:18.361Z,17.15
2019-04-16T16:52:18.748Z,17.05
2019-04-16T16:54:18.590Z,16.86
2019-04-16T16:56:21.109Z,16.95
2019-04-16T16:58:20.768Z,16.86
2019-04-16T17:00:20.753Z,16.87
2019-04-16T17:02:18.480Z,16.77
2019-04-16T17:04:18.720Z,16.82
2019-04-16T17:06:18.814Z,16.77
2019-04-16T17:08:18.634Z,16.73
2019-04-16T17:10:18.732Z,16.59
2019-04-16T17:12:18.647Z,16.53
2019-04-16T17:14:19.068Z,16.49
2019-04-16T17:16:18.565Z,16.44
2019-04-16T17:18:19.090Z,16.41
2019-04-16T17:20:18.649Z,16.38
2019-04-16T17:22:18.702Z,16.33
2019-04-16T17:24:18.645Z,16.33
2019-04-16T17:26:18.729Z,16.18
2019-04-16T17:28:18.742Z,16.09
2019-04-16T17:30:18.746Z,16.13
2019-04-16T17:32:18.559Z,16.08
2019-04-16T17:34:18.703Z,15.99
2019-04-16T17:36:18.733Z,16.01
2019-04-16T17:38:18.691Z,15.80
2019-04-16T17:40:18.814Z,15.81
2019-04-16T17:42:18.619Z,15.82
2019-04-16T17:44:18.519Z,15.71
2019-04-16T17:46:18.638Z,15.68
2019-04-16T17:48:21.003Z,15.52
2019-04-16T17:50:18.659Z,15.47
2019-04-16T17:52:18.773Z,15.53
2019-04-16T17:54:18.991Z,15.44
2019-04-16T17:56:18.805Z,15.32
2019-04-16T17:58:18.729Z,15.32
2019-04-16T18:00:19.625Z,15.14
2019-04-16T18:02:18.834Z,15.07
2019-04-16T18:04:18.744Z,14.99
2019-04-16T18:06:19.882Z,14.90
2019-04-16T18:08:18.676Z,14.81
2019-04-16T18:10:18.885Z,14.72
2019-04-16T18:12:19.867Z,14.67
2019-04-16T18:14:18.705Z,14.51
2019-04-16T18:16:19.758Z,14.49
2019-04-16T18:18:18.954Z,14.45
2019-04-16T18:20:18.741Z,14.36
2019-04-16T18:22:18.734Z,14.36
2019-04-16T18:24:18.870Z,14.38
2019-04-16T18:26:19.896Z,14.31
2019-04-16T18:28:18.661Z,14.32
2019-04-16T18:30:18.901Z,14.19
2019-04-16T18:32:21.095Z,14.16
2019-04-16T18:34:18.923Z,14.10
2019-04-16T18:36:18.734Z,14.02
2019-04-16T18:38:19.045Z,13.98
2019-04-16T18:40:19.847Z,14.01
2019-04-16T18:42:18.722Z,13.82
2019-04-16T18:44:18.793Z,13.92
2019-04-16T18:46:18.792Z,13.91
2019-04-16T18:48:18.950Z,13.80
2019-04-16T18:50:22.370Z,13.82
2019-04-16T18:52:19.032Z,13.82
2019-04-16T18:54:18.834Z,13.76
2019-04-16T18:56:18.981Z,13.69
2019-04-16T18:58:18.878Z,13.69
2019-04-16T19:00:18.877Z,13.56
2019-04-16T19:02:18.794Z,13.50
2019-04-16T19:04:18.687Z,13.41
2019-04-16T19:06:18.699Z,13.33
2019-04-16T19:08:19.021Z,13.36
2019-04-16T19:10:18.845Z,13.34
2019-04-16T19:12:18.772Z,13.25
2019-04-16T19:14:18.699Z,13.23
2019-04-16T19:16:18.765Z,13.15
2019-04-16T19:18:20.017Z,13.19
2019-04-16T19:20:19.760Z,13.16
2019-04-16T19:22:20.415Z,13.08
2019-04-16T19:24:19.025Z,13.18
2019-04-16T19:26:18.755Z,13.15
2019-04-16T19:28:20.205Z,13.12
2019-04-16T19:30:22.552Z,13.15
2019-04-16T19:32:18.966Z,13.11
2019-04-16T19:34:18.959Z,13.14
2019-04-16T19:36:19.785Z,13.10
2019-04-16T19:38:18.992Z,13.10
2019-04-16T19:40:19.545Z,13.09
2019-04-16T19:42:18.825Z,13.02
2019-04-16T19:44:18.903Z,13.16
2019-04-16T19:46:19.023Z,13.07
2019-04-16T19:48:34.266Z,13.16
2019-04-16T19:50:19.071Z,12.98
2019-04-16T19:52:18.874Z,13.05
2019-04-16T19:54:18.785Z,13.00
2019-04-16T19:56:19.593Z,12.95
2019-04-16T19:58:18.804Z,12.90
2019-04-16T20:00:23.008Z,12.81
2019-04-16T20:02:18.979Z,12.86
2019-04-16T20:04:19.056Z,12.82
2019-04-16T20:06:18.786Z,12.78
2019-04-16T20:08:18.873Z,12.81
2019-04-16T20:10:18.832Z,12.67
2019-04-16T20:12:18.993Z,12.64
2019-04-16T20:14:19.105Z,12.63
2019-04-16T20:16:19.015Z,12.56
2019-04-16T20:18:18.786Z,12.49
2019-04-16T20:20:18.831Z,12.33
2019-04-16T20:22:18.795Z,12.37
2019-04-16T20:24:18.856Z,12.25
2019-04-16T20:26:19.083Z,12.16
2019-04-16T20:28:18.887Z,12.06
2019-04-16T20:30:23.246Z,12.09
2019-04-16T20:32:18.618Z,11.88
2019-04-16T20:34:18.723Z,11.99
2019-04-16T20:36:22.455Z,11.95
2019-04-16T20:38:18.409Z,11.94
2019-04-16T20:40:18.793Z,11.92
2019-04-16T20:42:18.631Z,11.87
2019-04-16T20:44:18.462Z,11.93
2019-04-16T20:46:18.887Z,11.95
2019-04-16T20:48:19.512Z,11.79
2019-04-16T20:50:20.887Z,11.83
2019-04-16T20:52:18.540Z,11.80
2019-04-16T20:54:18.614Z,11.90
2019-04-16T20:56:20.678Z,11.83
2019-04-16T20:58:18.448Z,11.90
2019-04-16T21:00:18.395Z,11.93
2019-04-16T21:02:18.775Z,11.80
2019-04-16T21:04:18.797Z,11.99
2019-04-16T21:06:19.024Z,11.79
2019-04-16T21:08:24.382Z,11.86
2019-04-16T21:10:18.617Z,12.05
2019-04-16T21:12:18.735Z,11.99
2019-04-16T21:14:21.484Z,11.93
2019-04-16T21:16:18.402Z,11.98
2019-04-16T21:18:18.462Z,11.97
2019-04-16T21:20:20.271Z,11.95
2019-04-16T21:22:18.482Z,11.95
2019-04-16T21:24:18.615Z,12.01
2019-04-16T21:26:20.006Z,12.12
2019-04-16T21:28:19.146Z,12.09
2019-04-16T21:30:18.636Z,12.15
2019-04-16T21:32:18.408Z,12.19
2019-04-16T21:34:24.054Z,12.11
2019-04-16T21:36:18.770Z,12.18
2019-04-16T21:38:18.532Z,12.13
2019-04-16T21:40:23.180Z,12.14
2019-04-16T21:42:18.708Z,12.11
2019-04-16T21:44:18.722Z,12.11
2019-04-16T21:46:20.553Z,12.21
2019-04-16T21:48:18.698Z,12.28
2019-04-16T21:50:18.684Z,12.10
2019-04-16T21:52:18.766Z,12.16
2019-04-16T21:54:18.985Z,12.08
2019-04-16T21:56:18.742Z,12.30
2019-04-16T21:58:18.800Z,12.27
2019-04-16T22:00:18.820Z,12.21
2019-04-16T22:02:18.783Z,12.34
2019-04-16T22:04:18.733Z,12.30
2019-04-16T22:06:20.218Z,12.36
2019-04-16T22:08:18.859Z,12.27
2019-04-16T22:10:18.866Z,12.22
2019-04-16T22:12:19.091Z,12.29
2019-04-16T22:14:22.015Z,12.10
2019-04-16T22:16:18.438Z,12.16
2019-04-16T22:18:18.757Z,12.27
2019-04-16T22:20:18.771Z,12.18
2019-04-16T22:22:18.846Z,12.16
2019-04-16T22:24:19.752Z,12.23
2019-04-16T22:26:18.756Z,12.27
2019-04-16T22:28:18.979Z,12.31
2019-04-16T22:30:19.407Z,12.25
2019-04-16T22:32:18.822Z,12.25
2019-04-16T22:34:18.831Z,12.26
2019-04-16T22:36:18.486Z,12.25
2019-04-16T22:38:18.734Z,12.28
2019-04-16T22:40:22.584Z,12.06
2019-04-16T22:42:18.959Z,12.10
2019-04-16T22:44:19.382Z,12.04
2019-04-16T22:46:18.523Z,11.94
2019-04-16T22:48:18.555Z,11.98
2019-04-16T22:50:18.598Z,11.95
2019-04-16T22:52:18.606Z,11.78
2019-04-16T22:54:20.873Z,11.78
2019-04-16T22:56:18.592Z,11.73
2019-04-16T22:58:18.648Z,11.75
2019-04-16T23:00:18.563Z,11.61
2019-04-16T23:02:18.791Z,11.67
2019-04-16T23:04:18.788Z,11.70
2019-04-16T23:06:18.516Z,11.72
2019-04-16T23:08:18.583Z,11.66
2019-04-16T23:10:20.979Z,11.69
2019-04-16T23:12:18.672Z,11.66
2019-04-16T23:14:18.867Z,11.59
2019-04-16T23:16:18.879Z,11.59
2019-04-16T23:18:18.758Z,11.64
2019-04-16T23:20:29.283Z,11.49
2019-04-16T23:22:18.677Z,11.40
2019-04-16T23:24:23.187Z,11.52
2019-04-16T23:26:18.706Z,11.36
2019-04-16T23:28:18.838Z,11.45
2019-04-16T23:30:19.232Z,11.27
2019-04-16T23:32:19.148Z,11.25
2019-04-16T23:34:18.754Z,11.19
2019-04-16T23:36:18.889Z,11.11
2019-04-16T23:38:18.979Z,11.16
2019-04-16T23:40:18.900Z,11.05
2019-04-16T23:42:19.687Z,10.99
2019-04-16T23:44:18.918Z,11.07
2019-04-16T23:46:18.824Z,10.95
2019-04-16T23:48:18.835Z,10.87
2019-04-16T23:50:18.964Z,10.78
2019-04-16T23:52:18.971Z,10.75
2019-04-16T23:54:19.074Z,10.76
2019-04-16T23:56:20.607Z,10.68
2019-04-16T23:58:18.801Z,10.61
